Time;durP1;ratioP1;P1;durP2;ratioP2;P2;SDS_P1;SDS_P2;PMS_P1;PMS_P2;Temp;Humidity;BMP_temperature;BMP_pressure;BME280_temperature;BME280_humidity;BME280_pressure;Samples;Min_cycle;Max_cycle;Signal;HPM_P1;HPM_P2
2021/04/19 00:00:17;;;;;;;12.63;8.20;;;12.10;68.40;;;;;;5095440;28;20448;-66
2021/04/19 00:02:43;;;;;;;9.73;8.23;;;12.00;68.40;;;;;;5095584;28;20459;-67
2021/04/19 00:05:13;;;;;;;9.80;8.20;;;12.00;68.60;;;;;;5095663;28;20443;-67
2021/04/19 00:07:40;;;;;;;13.33;7.00;;;12.00;68.90;;;;;;5095246;28;20981;-67
2021/04/19 00:10:08;;;;;;;8.53;7.20;;;12.00;68.70;;;;;;5095574;28;20806;-67
2021/04/19 00:12:35;;;;;;;9.37;7.50;;;12.00;68.80;;;;;;5095490;28;20448;-67
2021/04/19 00:15:04;;;;;;;12.13;8.40;;;12.00;68.70;;;;;;5095367;28;20582;-67
2021/04/19 00:17:31;;;;;;;11.10;8.20;;;12.00;68.70;;;;;;5095324;28;20463;-67
2021/04/19 00:19:58;;;;;;;11.30;7.60;;;12.00;68.70;;;;;;5095358;28;20445;-67
2021/04/19 00:22:24;;;;;;;9.13;7.07;;;11.90;68.70;;;;;;5095349;28;20448;-67
2021/04/19 00:24:50;;;;;;;14.23;7.17;;;12.00;68.70;;;;;;5095284;28;20463;-67
2021/04/19 00:27:16;;;;;;;12.67;7.37;;;12.00;68.30;;;;;;5094389;28;20464;-67
2021/04/19 00:29:43;;;;;;;9.63;7.00;;;12.00;68.40;;;;;;5095217;28;20768;-67
2021/04/19 00:32:09;;;;;;;8.70;7.80;;;12.10;69.00;;;;;;5095104;28;20439;-67
2021/04/19 00:34:36;;;;;;;11.60;7.30;;;12.10;67.90;;;;;;5095036;28;20476;-67
2021/04/19 00:37:02;;;;;;;10.40;7.07;;;12.10;67.70;;;;;;5095795;28;20474;-67
2021/04/19 00:39:29;;;;;;;9.83;7.43;;;12.10;67.70;;;;;;5094978;28;20448;-67
2021/04/19 00:41:55;;;;;;;11.90;6.63;;;12.10;67.60;;;;;;5094943;28;20497;-67
2021/04/19 00:44:21;;;;;;;10.63;7.40;;;12.10;67.30;;;;;;5094940;28;20451;-67
2021/04/19 00:46:48;;;;;;;9.83;7.40;;;12.10;67.50;;;;;;5094456;28;20980;-67
2021/04/19 00:49:15;;;;;;;9.17;7.20;;;12.10;67.20;;;;;;5094774;28;20534;-67
2021/04/19 00:51:41;;;;;;;9.27;6.60;;;12.00;67.30;;;;;;5094749;28;20534;-67
2021/04/19 00:54:08;;;;;;;9.40;7.23;;;12.00;67.10;;;;;;5094410;28;20928;-67
2021/04/19 00:56:34;;;;;;;9.07;7.40;;;12.00;67.10;;;;;;5094829;28;20484;-67
2021/04/19 00:59:00;;;;;;;7.17;6.47;;;12.00;67.00;;;;;;5094298;28;20982;-67
2021/04/19 01:01:30;;;;;;;10.80;7.50;;;11.90;67.10;;;;;;5094546;28;20469;-67
2021/04/19 01:03:58;;;;;;;9.27;6.80;;;11.90;67.40;;;;;;5094582;28;20843;-67
2021/04/19 01:06:24;;;;;;;10.40;7.23;;;11.90;67.40;;;;;;5094441;28;20472;-67
2021/04/19 01:08:50;;;;;;;10.10;7.23;;;11.90;67.40;;;;;;5094506;28;20450;-67
2021/04/19 01:11:17;;;;;;;9.07;6.80;;;11.90;67.50;;;;;;5094091;28;20967;-67
2021/04/19 01:13:43;;;;;;;11.13;7.00;;;11.90;67.40;;;;;;5094360;28;20497;-67
2021/04/19 01:16:09;;;;;;;8.60;6.90;;;11.90;67.40;;;;;;5094178;28;20484;-67
2021/04/19 01:18:35;;;;;;;8.73;7.00;;;11.90;67.50;;;;;;5094244;28;20439;-67
2021/04/19 01:21:03;;;;;;;7.70;6.20;;;11.90;67.20;;;;;;5094369;28;20461;-67
2021/04/19 01:23:29;;;;;;;7.40;6.63;;;11.90;67.10;;;;;;5094182;28;20444;-67
2021/04/19 01:25:55;;;;;;;9.23;6.50;;;11.80;67.10;;;;;;5094041;28;20464;-67
2021/04/19 01:28:22;;;;;;;8.60;7.20;;;11.90;67.20;;;;;;5094019;28;20810;-67
2021/04/19 01:30:50;;;;;;;7.47;6.67;;;11.90;66.90;;;;;;5093756;28;20436;-67
2021/04/19 01:33:17;;;;;;;9.17;7.17;;;11.90;66.90;;;;;;5093996;28;20540;-67
2021/04/19 01:35:44;;;;;;;9.10;6.30;;;11.80;66.80;;;;;;5093809;28;20578;-67
2021/04/19 01:38:13;;;;;;;7.70;7.00;;;11.80;66.90;;;;;;5094022;28;20840;-67
2021/04/19 01:40:39;;;;;;;8.40;5.73;;;11.80;66.90;;;;;;5093898;28;20448;-67
2021/04/19 01:43:06;;;;;;;7.50;6.70;;;11.80;66.70;;;;;;5093846;28;20443;-67
2021/04/19 01:45:32;;;;;;;7.93;6.53;;;11.80;66.50;;;;;;5093769;28;20447;-67
2021/04/19 01:47:59;;;;;;;10.87;7.03;;;11.80;66.60;;;;;;5093839;28;20444;-67
2021/04/19 01:50:27;;;;;;;11.50;6.47;;;11.80;66.10;;;;;;5093760;28;20443;-67
2021/04/19 01:52:54;;;;;;;9.87;6.60;;;11.80;66.40;;;;;;5093761;28;20448;-67
2021/04/19 01:55:26;;;;;;;7.13;6.43;;;11.70;66.40;;;;;;5093440;28;20495;-67
2021/04/19 01:57:55;;;;;;;9.30;6.73;;;11.70;66.90;;;;;;5093360;28;20452;-67
2021/04/19 02:00:23;;;;;;;8.60;6.30;;;11.60;66.50;;;;;;5093673;28;20443;-67
2021/04/19 02:02:52;;;;;;;7.33;6.50;;;11.60;66.60;;;;;;5093624;28;20440;-67
2021/04/19 02:05:28;;;;;;;11.30;7.20;;;11.60;66.20;;;;;;5093590;28;20444;-67
2021/04/19 02:08:01;;;;;;;10.13;6.50;;;11.50;66.00;;;;;;5093603;28;20483;-67
2021/04/19 02:10:37;;;;;;;10.07;6.47;;;11.50;66.70;;;;;;5093287;28;20782;-67
2021/04/19 02:13:11;;;;;;;6.67;5.97;;;11.40;67.10;;;;;;5093606;28;20427;-67
2021/04/19 02:15:46;;;;;;;10.90;6.70;;;11.40;68.00;;;;;;5093396;28;20467;-67
2021/04/19 02:18:18;;;;;;;7.57;6.57;;;11.40;67.90;;;;;;5093207;28;20432;-67
2021/04/19 02:20:48;;;;;;;12.97;6.80;;;11.30;68.20;;;;;;5093496;28;20427;-67
2021/04/19 02:23:20;;;;;;;7.60;6.90;;;11.40;68.80;;;;;;5093606;28;20946;-67
2021/04/19 02:25:50;;;;;;;20.13;7.57;;;11.50;69.40;;;;;;5093358;28;20455;-67
2021/04/19 02:28:26;;;;;;;8.60;6.93;;;11.50;69.40;;;;;;5093426;28;20447;-67
2021/04/19 02:30:59;;;;;;;10.63;6.27;;;11.50;69.40;;;;;;5093302;28;20423;-66
2021/04/19 02:33:30;;;;;;;8.40;6.37;;;11.50;69.00;;;;;;5093387;28;20484;-67
2021/04/19 02:35:57;;;;;;;10.90;7.10;;;11.50;69.10;;;;;;5093221;28;20486;-67
2021/04/19 02:38:25;;;;;;;9.63;7.63;;;11.50;69.70;;;;;;5092990;28;20447;-66
2021/04/19 02:40:53;;;;;;;8.67;7.23;;;11.50;69.80;;;;;;5093271;28;20443;-67
2021/04/19 02:43:22;;;;;;;10.30;6.70;;;11.50;69.80;;;;;;5093253;28;20448;-67
2021/04/19 02:45:48;;;;;;;11.67;7.27;;;11.50;69.70;;;;;;5093115;28;20467;-66
2021/04/19 02:48:15;;;;;;;9.00;7.60;;;11.50;69.90;;;;;;5093166;28;20439;-66
2021/04/19 02:50:42;;;;;;;8.47;7.57;;;11.50;70.00;;;;;;5095411;28;20451;-66
2021/04/19 02:53:09;;;;;;;8.40;6.70;;;11.50;70.20;;;;;;5096761;28;20457;-66
2021/04/19 02:55:37;;;;;;;9.63;7.33;;;11.50;70.20;;;;;;5096464;28;21006;-67
2021/04/19 02:58:06;;;;;;;10.23;6.97;;;11.40;69.80;;;;;;5096945;28;20447;-67
2021/04/19 03:00:35;;;;;;;9.77;7.57;;;11.40;70.20;;;;;;5096936;28;20448;-66
2021/04/19 03:03:07;;;;;;;10.57;7.63;;;11.30;70.80;;;;;;5096852;28;20494;-66
2021/04/19 03:05:35;;;;;;;10.83;7.67;;;11.30;71.00;;;;;;5096961;28;20425;-65
2021/04/19 03:08:03;;;;;;;9.20;8.00;;;11.20;71.70;;;;;;5096477;28;20443;-66
2021/04/19 03:10:33;;;;;;;9.00;8.10;;;11.30;73.10;;;;;;5096692;28;20448;-66
2021/04/19 03:13:01;;;;;;;8.43;7.20;;;11.30;74.80;;;;;;5096756;28;20436;-66
2021/04/19 03:15:31;;;;;;;10.83;8.17;;;11.40;75.20;;;;;;5096510;28;20475;-66
2021/04/19 03:18:01;;;;;;;10.70;8.60;;;11.40;75.60;;;;;;5096671;28;20485;-66
2021/04/19 03:20:42;;;;;;;11.40;7.30;;;11.40;75.90;;;;;;5096332;28;20909;-66
2021/04/19 03:23:10;;;;;;;9.77;7.23;;;11.40;75.40;;;;;;5096534;28;20476;-66
2021/04/19 03:25:38;;;;;;;13.57;8.10;;;11.40;75.40;;;;;;5096058;28;20455;-66
2021/04/19 03:28:06;;;;;;;8.37;7.47;;;11.50;75.50;;;;;;5096400;28;20451;-66
2021/04/19 03:30:33;;;;;;;12.07;7.90;;;11.50;76.30;;;;;;5096389;28;20447;-66
2021/04/19 03:33:01;;;;;;;9.23;8.20;;;11.40;74.60;;;;;;5096287;28;20448;-67
2021/04/19 03:35:31;;;;;;;8.93;6.90;;;11.40;74.10;;;;;;5096168;28;20510;-67
2021/04/19 03:37:59;;;;;;;12.03;8.63;;;11.40;73.80;;;;;;5096261;28;20451;-66
2021/04/19 03:40:28;;;;;;;8.53;7.73;;;11.40;73.80;;;;;;5095900;28;20470;-66
2021/04/19 03:42:58;;;;;;;9.87;7.97;;;11.40;74.50;;;;;;5096068;28;20447;-66
2021/04/19 03:45:25;;;;;;;10.03;8.30;;;11.40;74.30;;;;;;5095959;28;20440;-67
2021/04/19 03:47:54;;;;;;;11.07;7.97;;;11.40;74.70;;;;;;5096040;28;20452;-67
2021/04/19 03:50:22;;;;;;;10.80;8.93;;;11.40;75.30;;;;;;5096040;28;20439;-66
2021/04/19 03:52:50;;;;;;;15.30;8.30;;;11.40;75.40;;;;;;5095884;28;20821;-67
2021/04/19 03:55:18;;;;;;;9.00;8.10;;;11.40;75.20;;;;;;5095632;28;20483;-67
2021/04/19 03:57:47;;;;;;;10.83;9.03;;;11.40;75.10;;;;;;5095752;28;20517;-66
2021/04/19 04:00:18;;;;;;;13.53;9.43;;;11.20;75.10;;;;;;5095823;28;20435;-66
2021/04/19 04:02:48;;;;;;;15.00;9.73;;;11.00;76.10;;;;;;5095353;28;20440;-66
2021/04/19 04:05:16;;;;;;;13.83;11.70;;;10.90;76.80;;;;;;5096522;28;20436;-66
2021/04/19 04:07:43;;;;;;;13.60;12.13;;;10.80;77.50;;;;;;5095250;28;20475;-66
2021/04/19 04:10:10;;;;;;;12.50;10.13;;;10.70;78.20;;;;;;5095312;28;20436;-66
2021/04/19 04:12:37;;;;;;;15.30;11.80;;;10.70;78.20;;;;;;5095489;28;20809;-66
2021/04/19 04:15:05;;;;;;;13.90;11.60;;;10.60;78.40;;;;;;5095138;28;20992;-66
2021/04/19 04:17:32;;;;;;;13.77;11.53;;;10.60;78.70;;;;;;5095374;28;20467;-66
2021/04/19 04:19:58;;;;;;;13.03;11.70;;;10.60;79.20;;;;;;5095444;28;20871;-66
2021/04/19 04:22:25;;;;;;;15.87;12.47;;;10.60;79.40;;;;;;5095381;28;20478;-67
2021/04/19 04:24:52;;;;;;;21.63;11.43;;;10.50;80.00;;;;;;5095345;28;20469;-67
2021/04/19 04:27:18;;;;;;;14.03;12.63;;;10.40;80.20;;;;;;5095249;28;20465;-67
2021/04/19 04:29:45;;;;;;;16.97;12.60;;;10.40;80.50;;;;;;5095188;28;20451;-67
2021/04/19 04:32:11;;;;;;;14.70;12.47;;;10.40;80.50;;;;;;5094949;28;20896;-67
2021/04/19 04:34:39;;;;;;;15.00;12.43;;;10.30;80.30;;;;;;5094843;28;20435;-67
2021/04/19 04:37:05;;;;;;;14.37;11.63;;;10.30;80.30;;;;;;5095004;28;20468;-67
2021/04/19 04:39:33;;;;;;;15.90;13.10;;;10.20;80.60;;;;;;5094633;28;20933;-67
2021/04/19 04:41:59;;;;;;;22.40;12.37;;;10.20;80.50;;;;;;5094939;28;20462;-67
2021/04/19 04:44:30;;;;;;;14.70;11.83;;;10.20;80.80;;;;;;5094787;28;20489;-67
2021/04/19 04:47:08;;;;;;;13.23;11.93;;;10.20;80.60;;;;;;5094855;28;20474;-67
2021/04/19 04:49:40;;;;;;;13.73;12.20;;;10.20;81.00;;;;;;5095658;28;20428;-67
2021/04/19 04:52:08;;;;;;;16.10;12.70;;;10.20;80.80;;;;;;5094827;28;20429;-67
2021/04/19 04:54:38;;;;;;;16.03;12.33;;;10.10;80.70;;;;;;5094734;28;20446;-67
2021/04/19 04:57:06;;;;;;;16.30;11.63;;;10.10;81.20;;;;;;5094320;28;20467;-67
2021/04/19 04:59:33;;;;;;;14.90;12.70;;;9.90;82.70;;;;;;5094705;28;20450;-67
2021/04/19 05:01:59;;;;;;;17.03;12.60;;;10.00;81.90;;;;;;5094312;28;20435;-67
2021/04/19 05:04:29;;;;;;;12.87;11.57;;;10.00;82.00;;;;;;5094211;28;20444;-67
2021/04/19 05:06:57;;;;;;;14.40;12.13;;;10.00;82.20;;;;;;5094434;28;20466;-67
2021/04/19 05:09:23;;;;;;;13.47;12.10;;;10.10;82.20;;;;;;5094489;28;20490;-67
2021/04/19 05:11:50;;;;;;;17.10;13.20;;;10.10;82.30;;;;;;5094074;28;20968;-67
2021/04/19 05:14:16;;;;;;;13.27;11.90;;;10.10;82.10;;;;;;5094056;28;20431;-67
2021/04/19 05:16:44;;;;;;;13.57;12.23;;;10.10;82.50;;;;;;5094245;28;20495;-67
2021/04/19 05:19:10;;;;;;;14.67;12.80;;;10.00;82.60;;;;;;5094340;28;20478;-67
2021/04/19 05:21:36;;;;;;;15.20;13.40;;;10.10;82.30;;;;;;5094230;28;20504;-67
2021/04/19 05:24:03;;;;;;;17.77;12.50;;;10.00;82.10;;;;;;5094192;28;20451;-67
2021/04/19 05:26:31;;;;;;;18.47;13.53;;;10.00;82.30;;;;;;5094055;28;20829;-67
2021/04/19 05:28:58;;;;;;;15.13;13.43;;;10.00;82.60;;;;;;5093827;28;20953;-67
2021/04/19 05:31:25;;;;;;;20.23;12.90;;;10.00;82.40;;;;;;5094114;28;20516;-67
2021/04/19 05:33:54;;;;;;;13.63;12.17;;;10.00;82.40;;;;;;5094040;28;20448;-67
2021/04/19 05:36:24;;;;;;;15.87;12.03;;;10.00;82.50;;;;;;5093871;28;20490;-67
2021/04/19 05:38:52;;;;;;;18.00;12.57;;;9.90;83.60;;;;;;5093898;28;20440;-67
2021/04/19 05:41:20;;;;;;;17.60;12.53;;;10.00;82.20;;;;;;5093554;28;20872;-67
2021/04/19 05:43:46;;;;;;;15.20;11.97;;;9.90;83.00;;;;;;5093660;28;20904;-67
2021/04/19 05:46:14;;;;;;;14.87;12.87;;;10.00;81.70;;;;;;5093761;28;20464;-67
2021/04/19 05:48:41;;;;;;;17.50;12.20;;;10.00;81.90;;;;;;5093833;28;20456;-67
2021/04/19 05:51:12;;;;;;;14.30;12.60;;;10.00;81.80;;;;;;5093790;28;20485;-66
2021/04/19 05:53:39;;;;;;;14.17;12.17;;;10.00;81.90;;;;;;5093716;28;20428;-66
2021/04/19 05:56:13;;;;;;;13.43;11.73;;;10.00;81.90;;;;;;5093266;28;20491;-66
2021/04/19 05:58:47;;;;;;;15.20;12.67;;;10.00;82.40;;;;;;5093753;28;20432;-65
2021/04/19 06:01:20;;;;;;;18.03;13.17;;;10.10;82.70;;;;;;5093352;28;20749;-65
2021/04/19 06:03:54;;;;;;;17.03;12.70;;;10.20;83.20;;;;;;5093737;28;20466;-66
2021/04/19 06:06:26;;;;;;;16.40;13.60;;;10.20;83.40;;;;;;5093560;28;20463;-66
2021/04/19 06:09:01;;;;;;;17.00;12.90;;;10.20;83.30;;;;;;5093587;28;20428;-66
2021/04/19 06:11:30;;;;;;;14.17;12.67;;;10.00;84.00;;;;;;5093585;28;20434;-66
2021/04/19 06:13:57;;;;;;;16.70;13.03;;;9.90;85.60;;;;;;5093557;28;20437;-66
2021/04/19 06:16:26;;;;;;;18.80;13.97;;;9.80;85.80;;;;;;5093381;28;20529;-66
2021/04/19 06:18:54;;;;;;;19.73;15.03;;;9.90;86.10;;;;;;5093476;28;20447;-66
2021/04/19 06:21:21;;;;;;;15.70;14.10;;;9.90;86.30;;;;;;5093468;28;20518;-66
2021/04/19 06:23:47;;;;;;;16.03;14.33;;;9.90;86.40;;;;;;5093420;28;20455;-66
2021/04/19 06:26:13;;;;;;;19.70;15.97;;;9.90;86.90;;;;;;5096277;28;20976;-66
2021/04/19 06:28:40;;;;;;;20.57;16.73;;;9.80;87.50;;;;;;5097651;28;20833;-66
2021/04/19 06:31:08;;;;;;;20.83;16.10;;;9.80;87.50;;;;;;5097222;28;20431;-66
2021/04/19 06:33:35;;;;;;;22.07;17.23;;;9.90;87.40;;;;;;5097506;28;20455;-65
2021/04/19 06:36:02;;;;;;;22.90;15.93;;;9.90;87.40;;;;;;5097272;28;20545;-66
2021/04/19 06:38:28;;;;;;;20.53;17.63;;;10.00;86.50;;;;;;5097423;28;20483;-66
2021/04/19 06:40:54;;;;;;;21.53;17.40;;;10.00;86.30;;;;;;5097026;28;20444;-66
2021/04/19 06:43:21;;;;;;;27.87;19.27;;;10.00;86.10;;;;;;5097284;28;20447;-66
2021/04/19 06:45:47;;;;;;;22.03;18.40;;;10.00;86.20;;;;;;5097204;28;20460;-66
2021/04/19 06:48:13;;;;;;;23.27;18.43;;;10.00;86.30;;;;;;5097164;28;20444;-66
2021/04/19 06:50:41;;;;;;;22.80;18.00;;;9.90;87.40;;;;;;5097181;28;20499;-66
2021/04/19 06:53:07;;;;;;;23.23;19.00;;;9.80;88.00;;;;;;5096752;28;20941;-66
2021/04/19 06:55:36;;;;;;;25.23;20.33;;;9.80;88.60;;;;;;5096636;28;20479;-66
2021/04/19 06:58:03;;;;;;;22.80;19.27;;;9.80;89.10;;;;;;5097016;28;20549;-66
2021/04/19 07:00:31;;;;;;;24.73;20.77;;;9.70;89.00;;;;;;5096978;28;20475;-66
2021/04/19 07:02:59;;;;;;;24.27;20.67;;;9.70;89.30;;;;;;5096897;28;20550;-66
2021/04/19 07:05:27;;;;;;;25.27;21.53;;;9.60;89.60;;;;;;5096728;28;20444;-66
2021/04/19 07:08:02;;;;;;;25.00;20.63;;;9.60;90.10;;;;;;5096829;28;20438;-66
2021/04/19 07:10:28;;;;;;;27.73;22.03;;;9.60;90.30;;;;;;5097045;28;20427;-66
2021/04/19 07:12:57;;;;;;;26.20;21.60;;;9.60;90.30;;;;;;5096757;28;20450;-66
2021/04/19 07:15:24;;;;;;;27.83;21.63;;;9.60;90.40;;;;;;5096521;28;20482;-65
2021/04/19 07:17:50;;;;;;;27.37;21.80;;;9.50;90.70;;;;;;5096560;28;20498;-66
2021/04/19 07:20:18;;;;;;;25.93;22.73;;;9.60;90.70;;;;;;5096277;28;20519;-66
2021/04/19 07:22:44;;;;;;;29.27;22.30;;;9.50;90.60;;;;;;5096568;28;20522;-66
2021/04/19 07:25:12;;;;;;;27.97;22.13;;;9.50;90.90;;;;;;5096548;28;20449;-65
2021/04/19 07:27:39;;;;;;;39.03;24.80;;;9.40;90.90;;;;;;5096093;28;21023;-66
2021/04/19 07:30:08;;;;;;;27.33;23.60;;;9.40;91.20;;;;;;5096462;28;20454;-66
2021/04/19 07:32:36;;;;;;;25.07;21.00;;;9.30;91.30;;;;;;5096473;28;20767;-66
2021/04/19 07:35:05;;;;;;;26.13;22.20;;;9.20;91.60;;;;;;5096012;28;20924;-66
2021/04/19 07:37:31;;;;;;;25.23;22.17;;;9.20;91.50;;;;;;5096125;28;20472;-67
2021/04/19 07:39:58;;;;;;;27.53;22.30;;;9.10;91.90;;;;;;5096225;28;20424;-67
2021/04/19 07:42:25;;;;;;;27.30;23.13;;;9.20;92.40;;;;;;5096240;28;20474;-67
2021/04/19 07:44:53;;;;;;;28.07;23.80;;;9.30;92.30;;;;;;5096163;28;20448;-67
2021/04/19 07:47:30;;;;;;;29.43;24.37;;;9.30;92.00;;;;;;5095949;28;20459;-67
2021/04/19 07:50:18;;;;;;;27.70;24.07;;;9.40;92.00;;;;;;5096010;28;20424;-66
2021/04/19 07:52:56;;;;;;;28.17;24.77;;;9.40;91.90;;;;;;5096035;28;20434;-67
2021/04/19 07:55:24;;;;;;;23.87;21.27;;;9.40;91.70;;;;;;5095735;28;20493;-66
2021/04/19 07:57:51;;;;;;;36.80;23.97;;;9.30;91.60;;;;;;5095814;28;20502;-66
2021/04/19 08:00:39;;;;;;;36.23;25.27;;;9.30;91.70;;;;;;5095767;28;20444;-66
2021/04/19 08:03:07;;;;;;;26.13;23.30;;;9.30;91.80;;;;;;5091090;28;20509;-66
2021/04/19 08:05:38;;;;;;;27.63;24.03;;;9.40;91.90;;;;;;5095754;28;20416;-67
2021/04/19 08:08:05;;;;;;;25.47;22.97;;;9.40;92.00;;;;;;5095740;28;20490;-67
2021/04/19 08:10:32;;;;;;;33.00;25.17;;;9.30;92.00;;;;;;5095306;28;20986;-67
2021/04/19 08:13:08;;;;;;;33.10;25.37;;;9.30;92.30;;;;;;5095585;28;20428;-67
2021/04/19 08:15:36;;;;;;;36.03;24.70;;;9.40;92.20;;;;;;5095085;28;20550;-67
2021/04/19 08:18:05;;;;;;;29.87;23.93;;;9.30;92.20;;;;;;5095496;28;20462;-67
2021/04/19 08:20:32;;;;;;;29.70;26.20;;;9.20;92.20;;;;;;5095458;28;20560;-67
2021/04/19 08:23:10;;;;;;;28.97;25.33;;;9.20;92.40;;;;;;5095067;28;20444;-67
2021/04/19 08:25:40;;;;;;;28.03;24.60;;;9.20;92.40;;;;;;5095295;28;20431;-67
2021/04/19 08:28:09;;;;;;;29.23;25.43;;;9.20;92.50;;;;;;5095303;28;20429;-67
2021/04/19 08:30:36;;;;;;;27.77;24.80;;;9.20;92.40;;;;;;5095316;28;20439;-67
2021/04/19 08:33:04;;;;;;;28.17;25.10;;;9.30;92.50;;;;;;5095819;28;20428;-67
2021/04/19 08:35:30;;;;;;;31.43;25.40;;;9.30;92.40;;;;;;5095040;28;20478;-67
2021/04/19 08:37:59;;;;;;;29.27;24.30;;;9.30;92.50;;;;;;5095124;28;20797;-67
2021/04/19 08:40:27;;;;;;;28.37;25.27;;;9.40;92.20;;;;;;5095205;28;20446;-67
2021/04/19 08:42:54;;;;;;;30.83;24.47;;;9.40;92.00;;;;;;5095355;28;20432;-67
2021/04/19 08:45:22;;;;;;;31.63;24.67;;;9.30;91.90;;;;;;5095210;28;20769;-66
2021/04/19 08:47:49;;;;;;;32.60;25.50;;;9.40;92.20;;;;;;5094306;28;20463;-68
2021/04/19 08:50:21;;;;;;;26.87;23.10;;;9.50;92.10;;;;;;5095186;28;20435;-67
2021/04/19 08:52:48;;;;;;;27.50;23.60;;;9.60;92.10;;;;;;5095119;28;20436;-67
2021/04/19 08:55:14;;;;;;;29.53;23.17;;;9.60;91.60;;;;;;5094855;28;20452;-66
2021/04/19 08:57:43;;;;;;;25.07;22.23;;;9.70;91.30;;;;;;5094864;28;20472;-67
2021/04/19 09:00:11;;;;;;;25.87;22.80;;;9.80;91.20;;;;;;5094911;28;20449;-67
2021/04/19 09:02:38;;;;;;;24.57;21.90;;;9.80;91.10;;;;;;5094544;28;20452;-67
2021/04/19 09:05:08;;;;;;;26.83;21.77;;;9.90;90.90;;;;;;5094784;28;20505;-67
2021/04/19 09:07:36;;;;;;;24.10;21.50;;;9.90;90.90;;;;;;5094724;28;20464;-67
2021/04/19 09:10:04;;;;;;;27.73;22.40;;;10.10;90.20;;;;;;5094666;28;20455;-67
2021/04/19 09:12:31;;;;;;;29.90;24.00;;;10.10;89.80;;;;;;5095064;28;20440;-67
2021/04/19 09:15:19;;;;;;;26.90;21.80;;;10.10;90.00;;;;;;5094723;28;20497;-67
2021/04/19 09:18:02;;;;;;;24.23;21.63;;;10.10;90.50;;;;;;5094544;28;20738;-67
2021/04/19 09:20:34;;;;;;;26.20;22.87;;;10.20;90.00;;;;;;5094145;28;20436;-67
2021/04/19 09:23:17;;;;;;;26.40;22.97;;;10.30;90.00;;;;;;5094372;28;20442;-67
2021/04/19 09:25:43;;;;;;;25.20;22.10;;;10.40;89.80;;;;;;5094117;28;20440;-67
2021/04/19 09:28:10;;;;;;;31.93;23.63;;;10.40;89.30;;;;;;5093928;28;20975;-67
2021/04/19 09:30:43;;;;;;;23.50;20.70;;;10.50;88.70;;;;;;5094126;28;20443;-67
2021/04/19 09:33:20;;;;;;;35.40;25.10;;;10.70;88.40;;;;;;5094109;28;20436;-67
2021/04/19 09:35:49;;;;;;;29.93;22.93;;;10.80;87.20;;;;;;5093955;28;20493;-67
2021/04/19 09:38:39;;;;;;;25.70;21.87;;;10.80;86.70;;;;;;5094122;28;20451;-67
2021/04/19 09:41:07;;;;;;;30.73;24.70;;;10.90;87.30;;;;;;5093468;28;20539;-67
2021/04/19 09:43:34;;;;;;;23.73;21.30;;;11.00;87.80;;;;;;5093994;28;20455;-67
2021/04/19 09:46:01;;;;;;;27.07;23.40;;;11.10;87.70;;;;;;5093767;28;20517;-67
2021/04/19 09:48:39;;;;;;;27.97;23.63;;;11.30;87.40;;;;;;5093573;28;20934;-67
2021/04/19 09:51:12;;;;;;;27.00;22.27;;;11.40;86.90;;;;;;5093880;28;20845;-67
2021/04/19 09:53:39;;;;;;;31.00;23.90;;;11.50;85.30;;;;;;5093777;28;20460;-67
2021/04/19 09:56:06;;;;;;;25.77;22.27;;;11.60;84.60;;;;;;5093392;28;20487;-67
2021/04/19 09:58:32;;;;;;;26.87;24.00;;;11.60;83.60;;;;;;5093607;28;20447;-67
2021/04/19 10:01:00;;;;;;;27.03;22.40;;;11.70;84.30;;;;;;5092998;28;20564;-67
2021/04/19 10:03:27;;;;;;;25.70;23.00;;;12.00;84.20;;;;;;5093773;28;20505;-67
2021/04/19 10:05:55;;;;;;;26.50;22.97;;;12.20;83.50;;;;;;5093545;28;20467;-67
2021/04/19 10:08:24;;;;;;;25.80;22.53;;;12.40;82.80;;;;;;5093303;28;20914;-67
2021/04/19 10:10:51;;;;;;;24.53;21.90;;;12.60;82.30;;;;;;5093356;28;20432;-67
2021/04/19 10:13:27;;;;;;;25.87;22.77;;;12.70;80.80;;;;;;5093756;28;20432;-67
2021/04/19 10:16:01;;;;;;;24.87;20.83;;;12.80;79.70;;;;;;5093670;28;20562;-67
2021/04/19 10:18:30;;;;;;;22.73;20.50;;;12.80;79.40;;;;;;5093680;28;20431;-67
2021/04/19 10:20:57;;;;;;;24.40;21.77;;;13.00;77.50;;;;;;5094248;28;20459;-68
2021/04/19 10:23:32;;;;;;;26.13;21.70;;;13.10;77.40;;;;;;5094148;28;20822;-68
2021/04/19 10:25:58;;;;;;;22.57;20.20;;;13.40;77.80;;;;;;5093261;28;20913;-68
2021/04/19 10:28:29;;;;;;;21.33;19.23;;;13.80;75.60;;;;;;5093199;28;20432;-68
2021/04/19 10:31:12;;;;;;;22.87;20.47;;;14.10;74.50;;;;;;5093211;28;20428;-68
2021/04/19 10:33:40;;;;;;;26.00;22.90;;;14.50;74.00;;;;;;5093318;28;20435;-68
2021/04/19 10:36:19;;;;;;;21.70;19.40;;;14.60;72.50;;;;;;5093295;28;20487;-68
2021/04/19 10:38:47;;;;;;;21.03;19.03;;;14.70;71.50;;;;;;5093037;28;20932;-68
2021/04/19 10:41:14;;;;;;;25.73;22.80;;;14.70;71.20;;;;;;5092972;28;20439;-68
2021/04/19 10:43:43;;;;;;;23.97;21.30;;;14.70;70.30;;;;;;5093256;28;20481;-68
2021/04/19 10:46:27;;;;;;;23.67;21.27;;;14.70;70.40;;;;;;5093198;28;20456;-68
2021/04/19 10:48:56;;;;;;;22.00;19.80;;;14.80;69.40;;;;;;5092905;28;20995;-68
2021/04/19 10:51:25;;;;;;;20.90;18.77;;;14.80;69.20;;;;;;5093316;28;20436;-68
2021/04/19 10:53:53;;;;;;;22.73;20.20;;;14.90;68.70;;;;;;5093173;28;20452;-68
2021/04/19 10:56:24;;;;;;;22.23;19.43;;;15.00;69.00;;;;;;5092659;28;20488;-68
2021/04/19 10:58:54;;;;;;;21.17;18.43;;;15.00;68.40;;;;;;5093130;28;20435;-68
2021/04/19 11:01:22;;;;;;;22.27;19.97;;;15.20;68.50;;;;;;5093122;28;20439;-68
2021/04/19 11:03:49;;;;;;;22.10;19.80;;;15.20;66.30;;;;;;5093118;28;20435;-67
2021/04/19 11:06:16;;;;;;;20.50;18.30;;;15.30;66.60;;;;;;5092702;28;20517;-70
2021/04/19 11:08:54;;;;;;;22.43;20.10;;;15.40;65.80;;;;;;5092967;28;20448;-69
2021/04/19 11:11:46;;;;;;;20.03;17.93;;;15.20;65.20;;;;;;5094718;28;20431;-68
2021/04/19 11:14:15;;;;;;;21.43;19.13;;;15.20;65.30;;;;;;5096730;28;20436;-69
2021/04/19 11:16:59;;;;;;;21.57;19.03;;;15.20;64.40;;;;;;5096425;28;20498;-69
2021/04/19 11:19:33;;;;;;;22.47;20.20;;;15.20;64.70;;;;;;5096678;28;20427;-68
2021/04/19 11:22:00;;;;;;;23.10;20.90;;;15.30;65.10;;;;;;5096668;28;20435;-68
2021/04/19 11:24:38;;;;;;;21.23;19.13;;;15.10;63.80;;;;;;5096472;28;20432;-69
2021/04/19 11:27:06;;;;;;;22.10;19.90;;;15.00;66.00;;;;;;5096411;28;20464;-69
2021/04/19 11:29:40;;;;;;;20.90;18.80;;;15.20;65.50;;;;;;5096489;28;20444;-69
2021/04/19 11:32:07;;;;;;;21.90;19.27;;;15.40;65.50;;;;;;5096419;28;20428;-69
2021/04/19 11:34:38;;;;;;;19.60;17.50;;;15.50;65.00;;;;;;5096399;28;20428;-69
2021/04/19 11:37:05;;;;;;;21.47;19.37;;;15.90;65.00;;;;;;5096186;28;20515;-69
2021/04/19 11:39:38;;;;;;;20.77;18.60;;;16.40;63.50;;;;;;5096259;28;20444;-69
2021/04/19 11:42:06;;;;;;;20.33;18.50;;;17.70;61.30;;;;;;5096184;28;20485;-69
2021/04/19 11:44:46;;;;;;;20.50;18.50;;;18.70;55.70;;;;;;5096105;28;20456;-69
2021/04/19 11:47:14;;;;;;;19.40;17.67;;;19.30;53.90;;;;;;5096047;28;20463;-69
2021/04/19 11:49:41;;;;;;;20.23;18.37;;;19.20;52.70;;;;;;5096018;28;20439;-69
2021/04/19 11:52:07;;;;;;;21.63;19.40;;;19.60;54.00;;;;;;5095640;28;20948;-69
2021/04/19 11:54:33;;;;;;;19.17;17.13;;;20.30;51.90;;;;;;5095959;28;20444;-69
2021/04/19 11:57:00;;;;;;;18.13;16.33;;;20.60;49.60;;;;;;5095378;28;20494;-69
2021/04/19 11:59:26;;;;;;;16.77;15.17;;;21.20;49.40;;;;;;5095811;28;20537;-69
2021/04/19 12:01:53;;;;;;;19.57;17.60;;;22.00;48.90;;;;;;5095790;28;20443;-69
2021/04/19 12:04:19;;;;;;;19.83;17.97;;;22.20;45.80;;;;;;5095889;28;20804;-69
2021/04/19 12:06:45;;;;;;;21.03;19.03;;;21.80;45.60;;;;;;5096204;28;20474;-69
2021/04/19 12:09:11;;;;;;;23.33;20.43;;;21.10;47.60;;;;;;5095700;28;20448;-69
2021/04/19 12:11:37;;;;;;;20.77;18.53;;;20.30;47.90;;;;;;5095618;28;20444;-69
2021/04/19 12:14:05;;;;;;;20.77;18.70;;;19.50;50.50;;;;;;5095562;28;20444;-69
2021/04/19 12:16:31;;;;;;;21.03;18.87;;;19.30;51.70;;;;;;5095412;28;20851;-69
2021/04/19 12:18:59;;;;;;;19.60;17.53;;;19.40;52.20;;;;;;5095542;28;20505;-69
2021/04/19 12:21:25;;;;;;;19.83;17.80;;;19.70;51.70;;;;;;5095467;28;20504;-69
2021/04/19 12:23:51;;;;;;;18.17;16.43;;;20.00;51.50;;;;;;5094397;28;20442;-69
2021/04/19 12:26:18;;;;;;;18.57;16.97;;;21.00;49.40;;;;;;5095294;28;20475;-69
2021/04/19 12:28:44;;;;;;;18.90;17.03;;;22.10;47.70;;;;;;5095308;28;20448;-69
2021/04/19 12:31:11;;;;;;;16.40;14.83;;;23.00;43.30;;;;;;5095198;28;20444;-69
2021/04/19 12:33:38;;;;;;;15.27;13.87;;;24.10;41.70;;;;;;5094840;28;20442;-70
2021/04/19 12:36:06;;;;;;;14.93;13.57;;;25.10;39.00;;;;;;5094971;28;20492;-69
2021/04/19 12:38:32;;;;;;;13.43;12.23;;;25.80;37.00;;;;;;5095080;28;20816;-69
2021/04/19 12:40:58;;;;;;;13.57;12.37;;;26.30;35.70;;;;;;5094676;28;20820;-69